PDT,Max TemperatureF,Mean TemperatureF,Min TemperatureF,Max Dew PointF,MeanDew PointF,Min DewpointF,Max Humidity, Mean Humidity, Min Humidity, Max Sea Level PressureIn, Mean Sea Level PressureIn, Min Sea Level PressureIn, Max VisibilityMiles, Mean VisibilityMiles, Min VisibilityMiles, Max Wind SpeedMPH, Mean Wind SpeedMPH, Max Gust SpeedMPH,PrecipitationIn, CloudCover, Events, WindDirDegrees
2013-10-1,74,54,33,26,24,21,64,39,14,29.94,29.85,29.81,10,10,10,20,8,25,0.00,0,,183
2013-10-2,71,53,34,36,28,19,64,43,22,29.94,29.83,29.71,10,9,2,28,6,35,0.00,1,,185
2013-10-3,48,40,32,24,17,11,64,43,21,30.12,29.95,29.72,10,10,10,28,12,36,T,4,,313
2013-10-4,50,36,22,23,19,13,69,47,25,30.43,30.29,30.15,10,10,10,24,9,35,0.00,2,,348
2013-10-5,62,40,17,21,14,10,80,47,13,30.55,30.45,30.35,10,10,10,16,6,18,0.00,0,,162
2013-10-6,77,50,22,18,15,11,68,39,9,30.43,30.26,30.11,10,7,1,18,8,23,0.00,0,,181
2013-10-7,73,54,34,20,15,7,52,31,9,30.11,29.97,29.79,10,7,1,24,12,31,0.00,0,,186
2013-10-8,66,47,28,21,14,9,53,33,13,30.02,29.78,29.61,10,8,0,14,7,17,0.00,0,,183
2013-10-9,56,42,28,37,29,18,100,64,27,29.81,29.67,29.54,10,9,2,26,8,38,0.08,5,Rain,107
2013-10-10,50,41,31,40,36,31,100,83,65,29.96,29.78,29.65,10,10,4,16,5,24,0.03,6,Rain,317
2013-10-11,58,42,26,37,26,18,100,61,21,30.12,30.03,29.96,10,8,1,14,7,20,0.00,1,,183
2013-10-12,60,45,30,32,28,24,85,55,25,30.03,29.90,29.76,10,6,0,21,9,28,0.00,1,,185
2013-10-13,46,39,32,39,35,28,100,77,53,30.16,30.00,29.76,10,8,1,20,5,25,0.45,8,Rain-Snow,328
2013-10-14,51,40,29,36,30,27,100,71,42,30.23,30.18,30.12,10,8,0,10,4,13,0.00,2,,291
2013-10-15,47,36,25,33,28,24,100,71,42,30.25,30.20,30.16,10,10,10,23,9,29,T,3,,14
2013-10-16,59,40,20,27,21,14,100,59,17,30.32,30.20,30.10,10,10,10,13,6,14,0.00,0,,170
2013-10-17,60,42,23,24,20,13,81,50,19,30.19,30.11,30.03,10,10,10,18,9,25,0.00,0,,171
2013-10-18,61,41,21,25,21,16,92,55,18,30.29,30.22,30.13,10,10,10,14,8,16,0.00,0,,154
2013-10-19,67,45,22,24,15,6,81,46,10,30.32,30.18,30.08,10,10,10,16,8,20,0.00,0,,162
2013-10-20,66,45,24,20,16,13,68,41,13,30.17,30.06,29.98,10,10,10,18,9,22,0.00,0,,180
2013-10-21,65,45,25,24,21,19,81,50,18,30.22,30.16,30.08,10,10,10,15,8,26,0.00,0,,153
2013-10-22,68,47,25,25,20,16,75,45,15,30.31,30.17,30.08,10,10,10,14,8,17,0.00,0,,170
2013-10-23,68,47,25,22,19,17,75,45,15,30.19,30.09,30.00,10,10,10,14,7,16,0.00,0,,170
2013-10-24,69,48,26,26,21,17,75,45,15,30.18,30.08,29.99,10,10,10,14,7,17,0.00,0,,174
2013-10-25,69,48,26,26,21,14,75,44,13,30.29,30.18,30.10,10,10,10,16,8,20,0.00,0,,169
2013-10-26,68,48,27,25,19,14,75,44,13,30.38,30.22,30.10,10,10,10,15,9,38,0.00,1,,175
2013-10-27,65,47,29,23,18,15,59,37,15,30.08,29.78,29.35,10,10,10,33,13,55,T,2,,179
2013-10-28,48,39,29,36,29,20,100,67,34,29.76,29.52,29.23,10,6,0,31,11,38,0.17,6,Fog-Rain-Snow,180
2013-10-29,43,36,28,34,30,25,100,85,70,29.98,29.87,29.75,10,7,2,17,8,22,0.02,7,Rain-Snow,296
2013-10-30,42,33,23,30,28,24,100,76,51,30.18,30.06,29.97,10,9,0,13,4,16,0.00,5,Fog,318
2013-10-31,51,35,19,31,25,17,100,70,39,30.30,30.24,30.17,10,10,10,12,6,15,0.00,0,,236